Weather reports worldwide

Advertisment
Ripoll, Spain (8118): temperature & dewpoint: 12.01.2018 07:00:00 - 18.01.2018 07:00:00 (CET)Ripoll, Spain (8118): wind speed & gusts: 12.01.2018 07:00:00 - 18.01.2018 07:00:00 (CET)Ripoll, Spain (8118): wind direction: 12.01.2018 07:00:00 - 18.01.2018 07:00:00 (CET)Ripoll, Spain (8118): precipitation: 12.01.2018 07:00:00 - 18.01.2018 07:00:00 (CET)
Date & Time tt [°C] td [°C] ff [km/h] ff [kn] fx [km/h] fx [kn] dd rr [mm]
18.01.2018 07:00:00 - - - - - - - -
18.01.2018 06:00:00 -1,4 -1,7 0 0 5 3 N 0,0
18.01.2018 05:00:00 -1,7 -2,2 0 0 1 1 SSE 0,0
18.01.2018 04:00:00 -1,3 -2,0 0 0 2 1 ESE 0,0
18.01.2018 03:00:00 -0,9 -1,7 1 1 4 2 SSE 0,0
18.01.2018 02:00:00 -0,8 -1,7 0 0 6 4 N 0,0
18.01.2018 01:00:00 0,0 -1,0 1 1 6 4 SSE -
18.01.2018 00:00:00 0,5 -0,5 2 1 5 3 NNE 0,0
17.01.2018 23:00:00 0,9 -0,5 0 0 4 2 E 0,0
17.01.2018 22:00:00 2,0 0,4 0 0 3 2 SSE 0,0
17.01.2018 21:00:00 3,1 1,1 0 0 3 1 SSE 0,0
17.01.2018 20:00:00 4,6 1,9 0 0 5 3 ESE 0,0
17.01.2018 19:00:00 6,6 2,7 0 0 7 4 N -
17.01.2018 18:00:00 9,4 4,1 3 2 13 7 SSE 0,0
17.01.2018 17:00:00 11,2 4,1 7 4 - - S 0,0
17.01.2018 16:00:00 12,1 4,3 11 6 19 10 SSE 0,0
17.01.2018 15:00:00 12,1 4,8 10 5 20 11 S 0,0
17.01.2018 14:00:00 11,6 5,0 11 6 19 10 SSE 0,0
17.01.2018 13:00:00 10,4 5,0 13 7 21 11 S -
17.01.2018 12:00:00 9,6 5,1 8 4 14 8 S 0,0
17.01.2018 11:00:00 7,3 5,1 1 1 5 3 ESE 0,0
17.01.2018 10:00:00 5,9 4,5 2 1 - - ENE 0,0
17.01.2018 09:00:00 5,2 3,8 2 1 7 4 N 0,0
17.01.2018 08:00:00 4,9 3,4 1 1 7 4 N 0,0
17.01.2018 07:00:00 4,8 3,2 3 2 7 4 NNE -
17.01.2018 06:00:00 4,7 3,2 1 1 11 6 NNE 0,0
17.01.2018 05:00:00 4,7 3,2 4 2 7 4 NE 0,0
17.01.2018 04:00:00 4,4 2,9 1 1 8 4 N 0,0
17.01.2018 03:00:00 4,1 2,7 1 1 5 3 NNE 0,0
17.01.2018 02:00:00 3,8 2,3 - - - - NE 0,0
17.01.2018 01:00:00 3,4 2,1 4 2 13 7 NE -
17.01.2018 00:00:00 3,1 1,7 3 1 9 5 NNE 0,0
16.01.2018 23:00:00 3,1 1,9 1 1 7 4 N 0,0
16.01.2018 22:00:00 2,8 1,7 2 1 5 3 NNW 0,0
16.01.2018 21:00:00 2,4 0,9 0 0 2 1 N 0,0
16.01.2018 20:00:00 3,4 1,3 0 0 1 1 N 0,0
16.01.2018 19:00:00 5,2 2,1 1 0 - - S -
16.01.2018 18:00:00 7,6 2,7 2 1 12 6 SE 0,0
16.01.2018 17:00:00 9,8 3,0 9 5 18 10 S 0,0
16.01.2018 16:00:00 11,1 2,7 11 6 19 11 S 0,0
16.01.2018 15:00:00 11,3 3,4 8 4 20 11 SSE 0,0
16.01.2018 14:00:00 10,1 3,2 9 5 20 11 S 0,0
16.01.2018 13:00:00 9,1 3,0 10 6 18 10 S -
16.01.2018 12:00:00 5,8 3,0 1 0 - - E 0,0
16.01.2018 11:00:00 2,1 1,1 2 1 11 6 NNW 0,0
16.01.2018 10:00:00 0,8 0,0 0 0 6 3 WNW 0,0
16.01.2018 09:00:00 0,7 -0,3 0 0 8 4 ENE 0,0
16.01.2018 08:00:00 0,8 -0,3 3 1 9 5 NNW 0,0
16.01.2018 07:00:00 1,0 -0,3 2 1 11 6 NNW -
16.01.2018 06:00:00 1,4 0,0 4 2 13 7 NW 0,0
16.01.2018 05:00:00 1,8 0,4 0 0 10 5 N 0,0
16.01.2018 04:00:00 2,1 0,6 - - - - E 0,0
16.01.2018 03:00:00 2,2 0,6 1 1 9 5 SW 0,0
16.01.2018 02:00:00 2,4 0,9 1 0 7 4 NW 0,0
16.01.2018 01:00:00 2,6 1,1 1 1 6 4 ESE -
16.01.2018 00:00:00 2,6 1,1 3 1 10 5 S 0,0
15.01.2018 23:00:00 2,5 1,1 6 3 11 6 SSE 0,0
15.01.2018 22:00:00 2,6 1,1 4 2 14 8 SSE 0,0
15.01.2018 21:00:00 3,0 1,3 6 4 - - S 0,0
15.01.2018 20:00:00 3,3 1,3 8 4 16 9 SSE 0,0
15.01.2018 19:00:00 3,9 1,7 8 4 16 8 SSE -
15.01.2018 18:00:00 4,4 1,7 8 4 14 8 SSE 0,0
15.01.2018 17:00:00 4,5 1,7 7 4 20 11 SSE 0,0
15.01.2018 16:00:00 5,2 1,5 11 6 28 15 S 0,0
15.01.2018 15:00:00 7,0 2,7 13 7 25 13 S 0,0
15.01.2018 14:00:00 6,9 2,5 13 7 - - S 0,0
15.01.2018 13:00:00 7,4 3,0 11 6 18 10 S -
15.01.2018 12:00:00 6,6 3,8 1 1 10 6 SE 0,0
15.01.2018 11:00:00 3,7 2,3 1 0 5 3 ESE 0,0
15.01.2018 10:00:00 0,5 0,0 0 0 3 1 N 0,0
15.01.2018 09:00:00 0,0 -0,7 0 0 5 3 N 0,0
15.01.2018 08:00:00 0,4 -0,5 0 0 7 4 NNW 0,0
15.01.2018 07:00:00 1,6 0,6 2 1 10 6 N -
15.01.2018 06:00:00 2,8 1,9 - - - - NNW 0,0
15.01.2018 05:00:00 2,8 1,9 2 1 11 6 N 0,0
15.01.2018 04:00:00 3,1 2,3 0 0 5 3 N 0,0
15.01.2018 03:00:00 3,4 2,7 1 0 5 3 NE 0,0
15.01.2018 02:00:00 3,6 2,9 1 1 4 2 S 0,0
15.01.2018 01:00:00 3,7 3,0 0 0 9 5 N -
15.01.2018 00:00:00 3,9 3,2 5 3 10 5 S 0,0
14.01.2018 23:00:00 4,2 3,2 6 4 - - S 0,0
14.01.2018 22:00:00 4,4 3,4 0 0 8 5 E 0,1
14.01.2018 21:00:00 4,7 3,2 0 0 5 3 SSE 0,0
14.01.2018 20:00:00 5,1 3,4 1 1 4 2 SE 0,0
14.01.2018 19:00:00 5,3 3,2 4 2 10 6 S -
14.01.2018 18:00:00 5,8 3,6 6 3 13 7 S 0,0
14.01.2018 17:00:00 6,4 3,6 7 4 14 8 S 0,0
14.01.2018 16:00:00 7,3 3,4 6 3 - - S 0,0
14.01.2018 15:00:00 7,9 3,2 3 1 9 5 N 0,0
14.01.2018 14:00:00 7,3 3,0 5 3 11 6 NW 0,0
14.01.2018 13:00:00 7,0 3,9 4 2 9 5 NNW -
14.01.2018 12:00:00 5,4 4,1 1 0 5 3 S 0,0
14.01.2018 11:00:00 4,8 4,1 3 2 8 4 N 0,0
14.01.2018 10:00:00 2,7 2,3 0 0 3 2 NNE 0,0
14.01.2018 09:00:00 2,0 1,5 1 0 4 2 N 0,0
14.01.2018 08:00:00 1,7 1,3 - - - - N 0,0
14.01.2018 07:00:00 1,5 1,1 2 1 7 4 NNW -
14.01.2018 06:00:00 1,7 1,1 0 0 5 3 SW 0,0
14.01.2018 05:00:00 2,6 2,1 0 0 4 2 N 0,0
14.01.2018 04:00:00 2,8 2,3 1 1 8 4 NNW 0,1
14.01.2018 03:00:00 3,3 2,7 1 1 3 2 NE 3,1
14.01.2018 02:00:00 3,5 2,9 0 0 3 1 N 1,1
14.01.2018 01:00:00 3,5 2,7 0 0 - - N -
14.01.2018 00:00:00 3,6 2,7 1 1 5 3 SSE 0,1
13.01.2018 23:00:00 4,1 3,2 1 1 5 3 NE 0,0
13.01.2018 22:00:00 4,4 3,2 0 0 5 3 ENE 0,4
13.01.2018 21:00:00 4,6 2,9 0 0 9 5 WNW 0,0
13.01.2018 20:00:00 4,8 2,1 2 1 8 4 SE 0,0
13.01.2018 19:00:00 5,5 2,1 3 2 9 5 S -
13.01.2018 18:00:00 6,0 2,1 4 2 - - SSW 0,0
13.01.2018 17:00:00 6,8 1,5 10 5 26 14 S 0,0
13.01.2018 16:00:00 7,4 1,1 11 6 29 16 S 0,0
13.01.2018 15:00:00 7,3 1,3 6 4 23 13 SSE 0,0
13.01.2018 14:00:00 6,3 0,6 11 6 28 15 S 0,0
13.01.2018 13:00:00 5,5 0,6 11 6 20 11 SSE -
13.01.2018 12:00:00 2,0 0,4 0 0 7 4 SE 0,0
13.01.2018 11:00:00 -0,9 -2,0 1 0 4 2 S 0,0
13.01.2018 10:00:00 -3,2 -3,9 - - - - N 0,0
13.01.2018 09:00:00 -4,6 -5,4 2 1 4 2 SSE 0,0
13.01.2018 08:00:00 -5,5 -6,0 0 0 0 0 N 0,0
13.01.2018 07:00:00 -5,6 -6,4 0 0 1 1 N -
13.01.2018 06:00:00 -5,4 -6,0 0 0 1 0 N 0,0
13.01.2018 05:00:00 -4,9 -5,7 0 0 3 2 NNW 0,0
13.01.2018 04:00:00 -4,5 -5,4 0 0 6 3 N 0,0
13.01.2018 03:00:00 -4,0 -5,1 1 0 - - NNW 0,0
13.01.2018 02:00:00 -3,8 -5,1 0 0 4 2 N 0,0
13.01.2018 01:00:00 -3,1 -4,5 1 1 6 3 N -
13.01.2018 00:00:00 -2,6 -4,2 1 1 7 4 N 0,0
12.01.2018 23:00:00 -2,2 -4,2 0 0 2 1 N 0,0
12.01.2018 22:00:00 -1,4 -3,6 1 1 5 3 N 0,0
12.01.2018 21:00:00 -0,6 -3,6 0 0 5 3 NW 0,0
12.01.2018 20:00:00 0,6 -3,3 0 0 - - N 0,0
12.01.2018 19:00:00 2,4 -3,6 0 0 4 2 SE -
12.01.2018 18:00:00 5,1 -4,5 2 1 11 6 NNE 0,0
12.01.2018 17:00:00 8,0 -5,1 1 1 21 12 NNW 0,0
12.01.2018 16:00:00 10,3 -3,9 3 1 14 7 S 0,0
12.01.2018 15:00:00 10,2 -3,3 4 2 21 11 N 0,0
12.01.2018 14:00:00 8,1 -3,9 5 3 21 12 SSE 0,0
12.01.2018 13:00:00 7,4 0,0 8 4 16 9 S -
12.01.2018 12:00:00 3,5 0,0 - - - - NE 0,0
12.01.2018 11:00:00 0,4 -1,0 0 0 0 0 N 0,0
12.01.2018 10:00:00 -2,7 -3,3 1 0 13 7 SE 0,0
12.01.2018 09:00:00 -3,5 -4,2 2 1 15 8 N 0,0
12.01.2018 08:00:00 -3,7 -4,2 1 0 11 6 N 0,0
12.01.2018 07:00:00 -2,8 -3,3 2 1 11 6 N -

tt = temperature
td = dewpoint
ff = wind speed
fx = gusts
dd = wind direction
rr = precipitation

Next stations